Time;durP1;ratioP1;P1;durP2;ratioP2;P2;SDS_P1;SDS_P2;PMS_P1;PMS_P2;Temp;Humidity;BMP_temperature;BMP_pressure;BME280_temperature;BME280_humidity;BME280_pressure;Samples;Min_cycle;Max_cycle;Signal;HPM_P1;HPM_P2
2024/02/19 00:02:16;;;;;;;12.53;1.70;;;;;;;;;;4878809;29;20201;-80
2024/02/19 00:04:43;;;;;;;10.93;2.20;;;;;;;;;;4878772;29;20205;-80
2024/02/19 00:07:10;;;;;;;13.57;2.67;;;;;;;;;;4879147;29;20297;-79
2024/02/19 00:09:37;;;;;;;10.47;2.10;;;;;;;;;;4878982;29;20201;-80
2024/02/19 00:12:05;;;;;;;12.10;2.47;;;;;;;;;;4878234;29;20293;-79
2024/02/19 00:14:32;;;;;;;11.23;1.80;;;;;;;;;;4878963;29;20206;-78
2024/02/19 00:16:59;;;;;;;10.53;2.07;;;;;;;;;;4878574;29;20269;-80
2024/02/19 00:19:27;;;;;;;8.33;2.00;;;;;;;;;;4878799;29;20225;-79
2024/02/19 00:21:55;;;;;;;12.23;2.27;;;;;;;;;;4878310;29;20292;-80
2024/02/19 00:24:22;;;;;;;14.10;2.20;;;;;;;;;;4878561;29;20297;-79
2024/02/19 00:26:49;;;;;;;11.00;2.10;;;;;;;;;;4878879;29;20296;-79
2024/02/19 00:29:16;;;;;;;12.30;2.17;;;;;;;;;;4878768;29;20289;-79
2024/02/19 00:31:44;;;;;;;12.93;2.23;;;;;;;;;;4878016;29;20667;-80
2024/02/19 00:34:11;;;;;;;11.50;2.00;;;;;;;;;;4878473;29;20211;-80
2024/02/19 00:36:41;;;;;;;14.47;2.20;;;;;;;;;;4878026;29;20328;-80
2024/02/19 00:39:08;;;;;;;9.77;1.97;;;;;;;;;;4878555;29;20293;-79
2024/02/19 00:41:36;;;;;;;15.33;2.00;;;;;;;;;;4878616;29;20210;-79
2024/02/19 00:44:03;;;;;;;11.53;1.87;;;;;;;;;;4877977;29;20212;-80
2024/02/19 00:46:31;;;;;;;12.70;2.33;;;;;;;;;;4877733;29;20747;-80
2024/02/19 00:48:58;;;;;;;11.10;2.03;;;;;;;;;;4878162;29;20784;-80
2024/02/19 00:51:25;;;;;;;12.37;2.20;;;;;;;;;;4877634;29;20782;-79
2024/02/19 00:53:53;;;;;;;13.73;2.30;;;;;;;;;;4878063;29;20956;-78
2024/02/19 00:56:21;;;;;;;14.63;2.00;;;;;;;;;;4878610;29;20325;-81
2024/02/19 00:58:48;;;;;;;12.63;1.90;;;;;;;;;;4878218;29;20258;-79
2024/02/19 01:01:15;;;;;;;15.80;2.40;;;;;;;;;;4877936;29;20202;-80
2024/02/19 01:03:45;;;;;;;16.73;2.73;;;;;;;;;;4877937;29;20289;-79
2024/02/19 01:06:12;;;;;;;13.97;2.10;;;;;;;;;;4878150;29;20253;-80
2024/02/19 01:08:39;;;;;;;12.63;2.53;;;;;;;;;;4877474;29;20293;-80
2024/02/19 01:11:08;;;;;;;11.37;1.90;;;;;;;;;;4877899;29;20233;-80
2024/02/19 01:13:35;;;;;;;12.63;2.43;;;;;;;;;;4877974;29;20262;-80
2024/02/19 01:16:02;;;;;;;14.60;1.90;;;;;;;;;;4878220;29;20649;-80
2024/02/19 01:18:29;;;;;;;11.90;1.90;;;;;;;;;;4877965;29;20640;-80
2024/02/19 01:20:56;;;;;;;17.13;2.97;;;;;;;;;;4877480;29;20205;-80
2024/02/19 01:23:24;;;;;;;11.07;2.40;;;;;;;;;;4877196;29;20743;-79
2024/02/19 01:25:52;;;;;;;12.97;2.63;;;;;;;;;;4877924;29;20215;-79
2024/02/19 01:28:20;;;;;;;19.87;2.60;;;;;;;;;;4878313;29;20208;-79
2024/02/19 01:30:48;;;;;;;15.17;2.57;;;;;;;;;;4877628;29;20747;-79
2024/02/19 01:33:15;;;;;;;15.03;2.30;;;;;;;;;;4877680;29;20232;-80
2024/02/19 01:35:44;;;;;;;13.97;2.17;;;;;;;;;;4877681;29;20234;-79
2024/02/19 01:38:11;;;;;;;15.50;2.27;;;;;;;;;;4877135;29;20213;-80
2024/02/19 01:40:39;;;;;;;13.40;2.43;;;;;;;;;;4878028;29;20241;-79
2024/02/19 01:43:07;;;;;;;12.57;2.43;;;;;;;;;;4877487;29;20767;-79
2024/02/19 01:45:35;;;;;;;14.03;2.40;;;;;;;;;;4877678;29;20277;-79
2024/02/19 01:48:03;;;;;;;18.43;2.03;;;;;;;;;;4877558;29;20201;-79
2024/02/19 01:50:31;;;;;;;14.60;2.20;;;;;;;;;;4877060;29;20240;-79
2024/02/19 01:52:59;;;;;;;14.53;2.50;;;;;;;;;;4877088;29;20198;-79
2024/02/19 01:55:27;;;;;;;11.67;2.40;;;;;;;;;;4877744;29;20297;-80
2024/02/19 01:57:55;;;;;;;11.07;2.00;;;;;;;;;;4877378;29;20202;-80
2024/02/19 02:00:22;;;;;;;24.57;2.90;;;;;;;;;;4877922;29;20293;-79
2024/02/19 02:02:51;;;;;;;16.90;2.40;;;;;;;;;;4877692;29;20206;-80
2024/02/19 02:05:18;;;;;;;15.13;2.10;;;;;;;;;;4878711;29;20198;-79
2024/02/19 02:07:46;;;;;;;18.33;2.40;;;;;;;;;;4869824;29;20308;-80
2024/02/19 02:10:13;;;;;;;20.70;3.30;;;;;;;;;;4880448;29;20296;-80
2024/02/19 02:12:40;;;;;;;17.10;2.30;;;;;;;;;;4881042;29;20284;-80
2024/02/19 02:15:07;;;;;;;19.57;2.70;;;;;;;;;;4880440;29;20249;-79
2024/02/19 02:17:34;;;;;;;17.67;2.70;;;;;;;;;;4880967;29;20233;-79
2024/02/19 02:20:04;;;;;;;15.53;2.20;;;;;;;;;;4880278;29;20245;-80
2024/02/19 02:22:31;;;;;;;16.03;2.27;;;;;;;;;;4880403;29;20593;-79
2024/02/19 02:24:59;;;;;;;18.60;2.80;;;;;;;;;;4880474;29;20257;-80
2024/02/19 02:27:28;;;;;;;13.13;2.70;;;;;;;;;;4880576;29;20574;-78
2024/02/19 02:29:55;;;;;;;18.03;2.20;;;;;;;;;;4880908;29;20198;-79
2024/02/19 02:32:22;;;;;;;17.43;2.83;;;;;;;;;;4880367;29;20225;-79
2024/02/19 02:34:50;;;;;;;18.33;2.60;;;;;;;;;;4880305;29;20206;-79
2024/02/19 02:37:17;;;;;;;15.73;2.50;;;;;;;;;;4879535;29;20329;-79
2024/02/19 02:39:44;;;;;;;15.80;2.40;;;;;;;;;;4880342;29;20289;-80
2024/02/19 02:42:11;;;;;;;19.60;2.73;;;;;;;;;;4880334;29;20292;-80
2024/02/19 02:44:40;;;;;;;16.73;2.53;;;;;;;;;;4880738;29;20266;-79
2024/02/19 02:47:07;;;;;;;16.33;2.20;;;;;;;;;;4880538;29;20216;-79
2024/02/19 02:49:34;;;;;;;21.73;2.60;;;;;;;;;;4880207;29;20289;-80
2024/02/19 02:52:01;;;;;;;17.07;2.23;;;;;;;;;;4879289;29;20241;-79
2024/02/19 02:54:28;;;;;;;17.17;2.47;;;;;;;;;;4880022;29;20297;-80
2024/02/19 02:56:55;;;;;;;17.13;1.87;;;;;;;;;;4879809;29;20328;-80
2024/02/19 02:59:23;;;;;;;15.50;2.60;;;;;;;;;;4879783;29;20305;-80
2024/02/19 03:01:51;;;;;;;20.97;2.80;;;;;;;;;;4880108;29;20293;-80
2024/02/19 03:04:18;;;;;;;15.30;2.23;;;;;;;;;;4880063;29;20292;-79
2024/02/19 03:06:45;;;;;;;14.70;2.27;;;;;;;;;;4879453;29;20288;-79
2024/02/19 03:09:13;;;;;;;14.57;2.10;;;;;;;;;;4879626;29;20202;-81
2024/02/19 03:11:40;;;;;;;14.87;2.47;;;;;;;;;;4879858;29;20238;-80
2024/02/19 03:14:09;;;;;;;17.10;2.27;;;;;;;;;;4879550;29;20296;-80
2024/02/19 03:16:37;;;;;;;13.67;2.67;;;;;;;;;;4879700;29;20229;-79
2024/02/19 03:19:05;;;;;;;19.20;2.70;;;;;;;;;;4879175;29;20252;-79
2024/02/19 03:21:32;;;;;;;22.20;3.37;;;;;;;;;;4879626;29;20249;-79
2024/02/19 03:24:00;;;;;;;12.23;2.30;;;;;;;;;;4880039;29;20240;-79
2024/02/19 03:26:27;;;;;;;17.03;2.40;;;;;;;;;;4879210;29;20297;-79
2024/02/19 03:28:54;;;;;;;14.50;2.40;;;;;;;;;;4879478;29;20205;-80
2024/02/19 03:31:22;;;;;;;13.97;2.23;;;;;;;;;;4879388;29;20213;-79
2024/02/19 03:33:49;;;;;;;11.87;2.20;;;;;;;;;;4879020;29;20285;-79
2024/02/19 03:36:17;;;;;;;18.73;2.73;;;;;;;;;;4879531;29;20261;-80
2024/02/19 03:38:44;;;;;;;20.80;2.27;;;;;;;;;;4879396;29;20285;-80
2024/02/19 03:41:13;;;;;;;18.00;3.17;;;;;;;;;;4879301;29;20288;-79
2024/02/19 03:43:40;;;;;;;14.63;2.27;;;;;;;;;;4879333;29;20212;-80
2024/02/19 03:46:08;;;;;;;14.20;2.20;;;;;;;;;;4878949;29;20308;-80
2024/02/19 03:48:35;;;;;;;17.67;2.70;;;;;;;;;;4879196;29;20209;-80
2024/02/19 03:51:03;;;;;;;19.17;2.57;;;;;;;;;;4878761;29;20268;-79
2024/02/19 03:53:31;;;;;;;16.93;2.23;;;;;;;;;;4878856;29;20297;-80
2024/02/19 03:55:58;;;;;;;14.77;2.57;;;;;;;;;;4878657;29;20296;-79
2024/02/19 03:58:25;;;;;;;21.53;2.80;;;;;;;;;;4879037;29;20297;-80
2024/02/19 04:00:53;;;;;;;14.40;2.10;;;;;;;;;;4879232;29;20266;-80
2024/02/19 04:03:20;;;;;;;16.67;2.30;;;;;;;;;;4878390;29;20292;-80
2024/02/19 04:05:47;;;;;;;18.00;2.60;;;;;;;;;;4879297;29;20295;-77
2024/02/19 04:08:14;;;;;;;17.80;2.80;;;;;;;;;;4878620;29;20300;-79
2024/02/19 04:10:43;;;;;;;17.70;2.77;;;;;;;;;;4878518;29;20335;-80
2024/02/19 04:13:10;;;;;;;17.37;2.50;;;;;;;;;;4878591;29;20302;-79
2024/02/19 04:15:37;;;;;;;18.60;2.43;;;;;;;;;;4878307;29;20252;-80
2024/02/19 04:18:04;;;;;;;18.67;3.03;;;;;;;;;;4878582;29;20237;-79
2024/02/19 04:20:32;;;;;;;20.23;2.87;;;;;;;;;;4878636;29;20301;-80
2024/02/19 04:22:59;;;;;;;18.17;2.97;;;;;;;;;;4878420;29;20254;-79
2024/02/19 04:25:25;;;;;;;15.40;2.47;;;;;;;;;;4878175;29;20292;-80
2024/02/19 04:27:54;;;;;;;17.97;2.60;;;;;;;;;;4877909;29;20221;-80
2024/02/19 04:30:21;;;;;;;17.50;2.63;;;;;;;;;;4878813;29;20212;-79
2024/02/19 04:32:49;;;;;;;16.53;3.10;;;;;;;;;;4877987;29;20208;-79
2024/02/19 04:35:16;;;;;;;22.83;2.83;;;;;;;;;;4878083;29;20201;-80
2024/02/19 04:37:43;;;;;;;16.27;2.93;;;;;;;;;;4878041;29;20269;-80
2024/02/19 04:40:12;;;;;;;20.67;2.80;;;;;;;;;;4878449;29;20240;-80
2024/02/19 04:42:39;;;;;;;21.77;3.37;;;;;;;;;;4878156;29;20208;-79
2024/02/19 04:45:08;;;;;;;17.87;2.83;;;;;;;;;;4878094;29;20198;-81
2024/02/19 04:47:35;;;;;;;15.90;2.47;;;;;;;;;;4877940;29;20248;-80
2024/02/19 04:50:03;;;;;;;17.63;2.67;;;;;;;;;;4878161;29;20277;-78
2024/02/19 04:52:30;;;;;;;18.43;2.40;;;;;;;;;;4878083;29;20289;-79
2024/02/19 04:54:58;;;;;;;19.97;2.57;;;;;;;;;;4878294;29;20588;-79
2024/02/19 04:57:25;;;;;;;18.37;3.10;;;;;;;;;;4877881;29;20257;-80
2024/02/19 04:59:52;;;;;;;16.10;2.67;;;;;;;;;;4878057;29;20703;-80
2024/02/19 05:02:21;;;;;;;13.10;2.73;;;;;;;;;;4878066;29;20201;-80
2024/02/19 05:04:48;;;;;;;18.87;2.50;;;;;;;;;;4878232;29;20208;-79
2024/02/19 05:07:15;;;;;;;13.83;2.40;;;;;;;;;;4877714;29;20228;-81
2024/02/19 05:09:43;;;;;;;20.07;2.87;;;;;;;;;;4877743;29;20222;-79
2024/02/19 05:12:10;;;;;;;16.50;2.33;;;;;;;;;;4878122;29;20579;-80
2024/02/19 05:14:37;;;;;;;19.27;2.60;;;;;;;;;;4877970;29;20225;-80
2024/02/19 05:17:04;;;;;;;16.83;2.40;;;;;;;;;;4877377;29;20806;-80
2024/02/19 05:19:33;;;;;;;20.30;2.70;;;;;;;;;;4878053;29;20202;-80
2024/02/19 05:22:00;;;;;;;18.17;2.53;;;;;;;;;;4877624;29;20240;-80
2024/02/19 05:24:27;;;;;;;17.53;2.80;;;;;;;;;;4878048;29;20202;-80
2024/02/19 05:26:55;;;;;;;17.23;2.63;;;;;;;;;;4878135;29;20229;-80
2024/02/19 05:29:22;;;;;;;14.33;2.30;;;;;;;;;;4877671;29;20237;-79
2024/02/19 05:31:51;;;;;;;14.30;2.27;;;;;;;;;;4877436;29;20202;-80
2024/02/19 05:34:19;;;;;;;13.53;2.20;;;;;;;;;;4877516;29;20214;-80
2024/02/19 05:36:47;;;;;;;10.80;2.33;;;;;;;;;;4877321;29;20242;-79
2024/02/19 05:39:15;;;;;;;19.37;2.67;;;;;;;;;;4879435;29;20693;-79
2024/02/19 05:41:43;;;;;;;16.90;2.90;;;;;;;;;;4881546;29;20762;-80
2024/02/19 05:44:11;;;;;;;22.20;3.07;;;;;;;;;;4881612;29;20240;-80
2024/02/19 05:46:38;;;;;;;14.27;2.33;;;;;;;;;;4881206;29;20201;-79
2024/02/19 05:49:05;;;;;;;15.27;2.30;;;;;;;;;;4881261;29;20237;-80
2024/02/19 05:51:32;;;;;;;17.10;2.50;;;;;;;;;;4881703;29;20264;-80
2024/02/19 05:54:01;;;;;;;17.90;2.70;;;;;;;;;;4880932;29;20631;-79
2024/02/19 05:56:29;;;;;;;18.17;2.17;;;;;;;;;;4881130;29;20229;-80
2024/02/19 05:58:56;;;;;;;19.23;2.47;;;;;;;;;;4880829;29;20695;-79
2024/02/19 06:01:23;;;;;;;16.30;2.50;;;;;;;;;;4881338;29;20245;-80
2024/02/19 06:03:50;;;;;;;18.30;2.43;;;;;;;;;;4880974;29;20210;-80
2024/02/19 06:06:17;;;;;;;14.23;1.97;;;;;;;;;;4881032;29;20226;-79
2024/02/19 06:08:44;;;;;;;12.60;1.90;;;;;;;;;;4881526;29;20306;-80
2024/02/19 06:11:13;;;;;;;11.27;2.00;;;;;;;;;;4880991;29;20289;-80
2024/02/19 06:13:40;;;;;;;16.77;2.07;;;;;;;;;;4880696;29;20233;-79
2024/02/19 06:16:09;;;;;;;12.27;2.10;;;;;;;;;;4881311;29;20293;-79
2024/02/19 06:18:36;;;;;;;15.90;2.87;;;;;;;;;;4880892;29;20329;-79
2024/02/19 06:21:03;;;;;;;12.37;2.10;;;;;;;;;;4880638;29;20300;-80
2024/02/19 06:23:30;;;;;;;19.00;2.63;;;;;;;;;;4880384;29;20376;-80
2024/02/19 06:25:58;;;;;;;14.77;2.50;;;;;;;;;;4880995;29;20671;-80
2024/02/19 06:28:27;;;;;;;16.80;2.10;;;;;;;;;;4880420;29;20210;-80
2024/02/19 06:30:54;;;;;;;16.60;2.03;;;;;;;;;;4880512;29;20217;-80
2024/02/19 06:33:21;;;;;;;13.43;2.23;;;;;;;;;;4880385;29;20202;-80
2024/02/19 06:35:49;;;;;;;13.27;2.07;;;;;;;;;;4880876;29;20351;-80
2024/02/19 06:38:16;;;;;;;15.10;2.67;;;;;;;;;;4880134;29;20293;-81
2024/02/19 06:40:43;;;;;;;16.77;2.40;;;;;;;;;;4889409;29;20288;-78
2024/02/19 06:43:11;;;;;;;18.23;2.37;;;;;;;;;;4877071;29;20237;-79
2024/02/19 06:45:39;;;;;;;12.87;2.10;;;;;;;;;;4898312;29;20229;-79
2024/02/19 06:48:07;;;;;;;11.53;1.83;;;;;;;;;;4898155;29;20240;-80
2024/02/19 06:50:34;;;;;;;9.03;1.30;;;;;;;;;;4898445;29;20329;-79
2024/02/19 06:53:02;;;;;;;8.90;1.60;;;;;;;;;;4899121;29;20296;-79
2024/02/19 06:55:29;;;;;;;12.50;1.33;;;;;;;;;;4899315;29;20304;-79
2024/02/19 06:57:56;;;;;;;9.50;1.50;;;;;;;;;;4898979;29;20328;-79
2024/02/19 07:00:23;;;;;;;10.50;1.37;;;;;;;;;;4898782;29;20205;-78
2024/02/19 07:02:52;;;;;;;4.90;1.07;;;;;;;;;;4898674;29;20292;-78
2024/02/19 07:05:19;;;;;;;11.40;1.27;;;;;;;;;;4898903;29;20244;-79
2024/02/19 07:07:49;;;;;;;6.00;1.30;;;;;;;;;;4898898;29;20683;-80
2024/02/19 07:10:17;;;;;;;8.37;1.20;;;;;;;;;;4864442;29;20244;-80
2024/02/19 07:12:45;;;;;;;9.50;1.80;;;;;;;;;;4871132;29;20220;-79
2024/02/19 07:15:12;;;;;;;8.13;1.70;;;;;;;;;;4875019;29;20205;-79
2024/02/19 07:17:39;;;;;;;13.23;2.70;;;;;;;;;;4873056;29;20245;-80
2024/02/19 07:20:08;;;;;;;10.93;2.40;;;;;;;;;;4872693;29;20305;-79
2024/02/19 07:22:38;;;;;;;9.93;2.07;;;;;;;;;;4869071;29;20578;-79
2024/02/19 07:25:06;;;;;;;11.53;2.07;;;;;;;;;;4879444;29;20225;-79
2024/02/19 07:27:33;;;;;;;9.80;1.77;;;;;;;;;;4879314;29;20202;-79
2024/02/19 07:30:00;;;;;;;6.27;1.40;;;;;;;;;;4879373;29;20297;-79
2024/02/19 07:32:27;;;;;;;10.50;1.87;;;;;;;;;;4879329;29;20296;-79
2024/02/19 07:34:54;;;;;;;7.70;1.80;;;;;;;;;;4879513;29;20227;-79
2024/02/19 07:37:23;;;;;;;7.37;2.00;;;;;;;;;;4879098;29;20321;-78
2024/02/19 07:39:50;;;;;;;8.57;1.60;;;;;;;;;;4879363;29;20293;-79
2024/02/19 07:42:17;;;;;;;7.07;1.40;;;;;;;;;;4878750;29;20269;-79
2024/02/19 07:44:45;;;;;;;11.77;1.50;;;;;;;;;;4878358;29;20687;-78
2024/02/19 07:47:12;;;;;;;11.20;1.83;;;;;;;;;;4878663;29;20954;-79
2024/02/19 07:49:39;;;;;;;10.07;1.30;;;;;;;;;;4878527;29;20677;-79
2024/02/19 07:52:06;;;;;;;6.57;1.20;;;;;;;;;;4879078;29;20639;-79
2024/02/19 07:54:35;;;;;;;9.57;1.40;;;;;;;;;;4878571;29;20858;-78
2024/02/19 07:57:02;;;;;;;7.40;1.40;;;;;;;;;;4878547;29;20289;-78
2024/02/19 07:59:29;;;;;;;11.83;1.97;;;;;;;;;;4878839;29;20325;-78
2024/02/19 08:01:57;;;;;;;6.27;1.33;;;;;;;;;;4877611;29;20263;-80
2024/02/19 08:04:27;;;;;;;6.27;1.30;;;;;;;;;;4878731;29;20234;-81
2024/02/19 08:06:54;;;;;;;7.87;1.40;;;;;;;;;;4879308;29;20210;-80
2024/02/19 08:09:22;;;;;;;9.73;1.50;;;;;;;;;;4878592;29;20229;-80
2024/02/19 08:11:51;;;;;;;8.33;1.80;;;;;;;;;;4878042;29;20676;-80
2024/02/19 08:14:19;;;;;;;8.40;1.13;;;;;;;;;;4877903;29;20202;-80
2024/02/19 08:16:48;;;;;;;6.83;1.20;;;;;;;;;;4878032;29;20249;-80
2024/02/19 08:19:16;;;;;;;8.53;1.43;;;;;;;;;;4878616;29;20238;-80
2024/02/19 08:21:43;;;;;;;8.20;1.43;;;;;;;;;;4877701;29;20630;-78
2024/02/19 08:24:10;;;;;;;10.40;1.60;;;;;;;;;;4877996;29;20644;-80
2024/02/19 08:26:38;;;;;;;9.60;1.87;;;;;;;;;;4878248;29;20241;-80
2024/02/19 08:29:07;;;;;;;11.07;1.70;;;;;;;;;;4878117;29;20285;-79
2024/02/19 08:31:34;;;;;;;5.87;1.50;;;;;;;;;;4877902;29;20237;-80
2024/02/19 08:34:01;;;;;;;10.17;1.70;;;;;;;;;;4878134;29;20651;-81
2024/02/19 08:36:28;;;;;;;11.50;2.50;;;;;;;;;;4878519;29;20859;-80
2024/02/19 08:38:56;;;;;;;7.43;2.30;;;;;;;;;;4877230;29;20320;-80
2024/02/19 08:41:24;;;;;;;8.00;2.00;;;;;;;;;;4877794;29;20202;-80
2024/02/19 08:43:51;;;;;;;9.40;2.00;;;;;;;;;;4878058;29;20210;-80
2024/02/19 08:46:20;;;;;;;12.03;2.30;;;;;;;;;;4878168;29;20290;-81
2024/02/19 08:48:47;;;;;;;10.73;2.00;;;;;;;;;;4878161;29;20206;-80
2024/02/19 08:51:14;;;;;;;9.03;2.00;;;;;;;;;;4877610;29;20735;-79
2024/02/19 08:53:42;;;;;;;11.20;2.20;;;;;;;;;;4877577;29;20285;-80
2024/02/19 08:56:09;;;;;;;12.93;2.63;;;;;;;;;;4878361;29;20254;-80
2024/02/19 08:58:36;;;;;;;10.63;2.60;;;;;;;;;;4877766;29;20674;-80
2024/02/19 09:01:06;;;;;;;8.93;2.10;;;;;;;;;;4877612;29;20767;-79
2024/02/19 09:03:34;;;;;;;16.30;5.53;;;;;;;;;;4877860;29;20202;-80
2024/02/19 09:06:02;;;;;;;12.90;3.37;;;;;;;;;;4877800;29;20904;-81
2024/02/19 09:08:29;;;;;;;10.73;2.33;;;;;;;;;;4877456;29;20301;-81
2024/02/19 09:10:56;;;;;;;8.60;2.50;;;;;;;;;;4878015;29;20683;-81
2024/02/19 09:13:23;;;;;;;10.67;2.30;;;;;;;;;;4877493;29;20210;-80
2024/02/19 09:15:52;;;;;;;10.70;2.27;;;;;;;;;;4877701;29;20284;-81
2024/02/19 09:18:20;;;;;;;6.70;2.20;;;;;;;;;;4877907;29;20268;-80
2024/02/19 09:20:49;;;;;;;12.87;2.63;;;;;;;;;;4877193;29;20735;-80
2024/02/19 09:23:17;;;;;;;13.03;2.70;;;;;;;;;;4877222;29;20202;-81
2024/02/19 09:25:44;;;;;;;11.73;2.37;;;;;;;;;;4877093;29;20205;-81
2024/02/19 09:28:11;;;;;;;11.20;2.10;;;;;;;;;;4877564;29;20202;-81
2024/02/19 09:30:39;;;;;;;9.53;2.00;;;;;;;;;;4878027;29;20216;-81
2024/02/19 09:33:06;;;;;;;8.37;2.10;;;;;;;;;;4877397;29;20213;-81
2024/02/19 09:35:33;;;;;;;11.13;2.83;;;;;;;;;;4878166;29;20237;-81
2024/02/19 09:38:02;;;;;;;14.33;2.80;;;;;;;;;;4876716;29;20241;-81
2024/02/19 09:40:32;;;;;;;10.63;2.60;;;;;;;;;;4876788;29;20702;-81
2024/02/19 09:43:00;;;;;;;11.07;2.37;;;;;;;;;;4876930;29;20206;-82
2024/02/19 09:45:28;;;;;;;11.67;2.70;;;;;;;;;;4877295;29;20270;-81
2024/02/19 09:48:00;;;;;;;8.70;2.20;;;;;;;;;;4877356;29;20790;-82
2024/02/19 09:50:31;;;;;;;9.47;2.40;;;;;;;;;;4877324;29;20244;-81
2024/02/19 09:53:04;;;;;;;7.93;2.00;;;;;;;;;;4877281;29;20315;-81
2024/02/19 09:55:32;;;;;;;6.63;1.93;;;;;;;;;;4877286;29;20231;-81
2024/02/19 09:58:00;;;;;;;12.47;2.00;;;;;;;;;;4877293;29;20297;-83
2024/02/19 10:00:27;;;;;;;10.10;2.80;;;;;;;;;;4876909;29;20204;-81
2024/02/19 10:02:54;;;;;;;10.43;2.63;;;;;;;;;;4877203;29;20672;-81
2024/02/19 10:05:21;;;;;;;8.73;2.30;;;;;;;;;;4876818;29;20210;-82
2024/02/19 10:07:49;;;;;;;11.40;2.80;;;;;;;;;;4877057;29;20759;-81
2024/02/19 10:10:17;;;;;;;9.80;2.70;;;;;;;;;;4877073;29;20222;-81
2024/02/19 10:12:45;;;;;;;9.20;2.07;;;;;;;;;;4877250;29;20298;-81
2024/02/19 10:15:13;;;;;;;11.20;3.07;;;;;;;;;;4877106;29;20238;-82
2024/02/19 10:17:40;;;;;;;8.50;2.73;;;;;;;;;;4876963;29;20205;-81
2024/02/19 10:20:08;;;;;;;15.17;2.87;;;;;;;;;;4876490;29;20329;-82
2024/02/19 10:22:35;;;;;;;12.37;2.70;;;;;;;;;;4876995;29;20206;-82
2024/02/19 10:25:06;;;;;;;9.40;2.20;;;;;;;;;;4878536;29;20241;-81
2024/02/19 10:27:35;;;;;;;9.00;2.37;;;;;;;;;;4880843;29;20545;-81
2024/02/19 10:30:04;;;;;;;10.57;2.57;;;;;;;;;;4880384;29;20206;-82
2024/02/19 10:32:32;;;;;;;8.03;2.10;;;;;;;;;;4880232;29;20206;-82
2024/02/19 10:34:59;;;;;;;6.33;2.40;;;;;;;;;;4879979;29;20687;-82
2024/02/19 10:37:26;;;;;;;8.57;2.50;;;;;;;;;;4880227;29;20236;-81
2024/02/19 10:39:53;;;;;;;11.83;3.17;;;;;;;;;;4880141;29;20244;-82
2024/02/19 10:42:21;;;;;;;10.13;2.83;;;;;;;;;;4880249;29;20285;-81
2024/02/19 10:44:49;;;;;;;14.37;6.80;;;;;;;;;;4880163;29;20278;-82
2024/02/19 10:47:18;;;;;;;9.83;2.50;;;;;;;;;;4880144;29;20258;-83
2024/02/19 10:49:55;;;;;;;7.17;2.50;;;;;;;;;;4879386;29;20249;-82
2024/02/19 10:52:25;;;;;;;10.30;2.60;;;;;;;;;;4879563;29;20672;-82
2024/02/19 10:54:56;;;;;;;9.03;2.10;;;;;;;;;;4879722;29;20234;-81
2024/02/19 10:57:23;;;;;;;7.00;1.60;;;;;;;;;;4879749;29;20300;-82
2024/02/19 11:00:05;;;;;;;8.17;2.00;;;;;;;;;;4879346;29;20711;-81
2024/02/19 11:02:36;;;;;;;8.70;2.30;;;;;;;;;;4879996;29;20201;-81
2024/02/19 11:05:03;;;;;;;6.20;1.77;;;;;;;;;;4879421;29;20206;-81
2024/02/19 11:07:33;;;;;;;8.93;1.77;;;;;;;;;;4879470;29;20777;-81
2024/02/19 11:10:00;;;;;;;6.47;1.70;;;;;;;;;;4879677;29;20299;-81
2024/02/19 11:12:28;;;;;;;7.97;1.90;;;;;;;;;;4879142;29;20285;-82
2024/02/19 11:14:55;;;;;;;6.87;1.60;;;;;;;;;;4879536;29;20198;-83
2024/02/19 11:17:23;;;;;;;9.53;1.90;;;;;;;;;;4878808;29;20202;-82
2024/02/19 11:19:52;;;;;;;12.57;2.20;;;;;;;;;;4879142;29;20230;-83
2024/02/19 11:22:24;;;;;;;6.07;1.60;;;;;;;;;;4878570;29;20296;-83
2024/02/19 11:24:51;;;;;;;5.90;1.47;;;;;;;;;;4882388;29;20556;-83
2024/02/19 11:27:19;;;;;;;5.87;1.53;;;;;;;;;;4879194;29;20297;-81
2024/02/19 11:29:46;;;;;;;5.03;1.70;;;;;;;;;;4878975;29;20246;-82
2024/02/19 11:32:17;;;;;;;6.43;2.05;;;;;;;;;;4876746;29;20212;-82
2024/02/19 11:34:44;;;;;;;11.43;2.33;;;;;;;;;;4878703;29;20206;-82
2024/02/19 11:37:13;;;;;;;7.20;2.83;;;;;;;;;;4879651;29;20228;-82
2024/02/19 11:39:42;;;;;;;7.60;2.27;;;;;;;;;;4880634;29;20604;-82
2024/02/19 11:42:14;;;;;;;10.90;2.20;;;;;;;;;;4878180;29;20284;-81
2024/02/19 11:44:42;;;;;;;6.10;2.10;;;;;;;;;;4878413;29;20793;-81
2024/02/19 11:47:10;;;;;;;6.30;2.27;;;;;;;;;;4878451;29;20198;-81
2024/02/19 11:49:37;;;;;;;8.75;2.33;;;;;;;;;;4878483;29;20205;-82
2024/02/19 11:52:07;;;;;;;6.13;2.17;;;;;;;;;;4878277;29;20254;-81
2024/02/19 11:54:36;;;;;;;8.30;2.30;;;;;;;;;;4875850;29;20702;-81
2024/02/19 11:57:05;;;;;;;7.22;2.60;;;;;;;;;;4878936;29;20356;-80
2024/02/19 11:59:32;;;;;;;10.18;2.75;;;;;;;;;;4878207;29;20233;-82
2024/02/19 12:02:00;;;;;;;7.13;2.00;;;;;;;;;;4877528;29;20257;-81
2024/02/19 12:04:28;;;;;;;9.25;2.17;;;;;;;;;;4878166;29;20229;-82
2024/02/19 12:06:55;;;;;;;8.30;1.98;;;;;;;;;;4879179;29;20214;-81
2024/02/19 12:09:22;;;;;;;8.25;2.00;;;;;;;;;;4878441;29;20300;-78
2024/02/19 12:11:51;;;;;;;4.10;1.67;;;;;;;;;;4878096;29;20698;-80
2024/02/19 12:14:20;;;;;;;6.95;1.95;;;;;;;;;;4878723;29;20241;-81
2024/02/19 12:16:47;;;;;;;4.32;1.75;;;;;;;;;;4878224;29;20206;-81
2024/02/19 12:19:15;;;;;;;8.45;1.67;;;;;;;;;;4878350;29;20228;-80
2024/02/19 12:21:43;;;;;;;9.37;2.10;;;;;;;;;;4877934;29;20764;-80
2024/02/19 12:24:11;;;;;;;7.38;1.70;;;;;;;;;;4878160;29;20202;-80
2024/02/19 12:26:39;;;;;;;8.82;2.00;;;;;;;;;;4878139;29;20240;-80
2024/02/19 12:29:07;;;;;;;8.05;2.60;;;;;;;;;;4878309;29;20582;-80
2024/02/19 12:31:35;;;;;;;8.13;2.50;;;;;;;;;;4878164;29;20288;-81
2024/02/19 12:34:02;;;;;;;7.22;2.10;;;;;;;;;;4878516;29;20210;-81
2024/02/19 12:36:29;;;;;;;5.95;2.10;;;;;;;;;;4877995;29;20225;-80
2024/02/19 12:38:58;;;;;;;5.05;2.20;;;;;;;;;;4878084;29;20251;-81
2024/02/19 12:41:26;;;;;;;5.45;1.83;;;;;;;;;;4878092;29;20210;-81
2024/02/19 12:43:53;;;;;;;4.90;2.20;;;;;;;;;;4877968;29;20230;-80
2024/02/19 12:46:23;;;;;;;5.15;2.22;;;;;;;;;;4877651;29;20206;-80
2024/02/19 12:48:50;;;;;;;6.15;2.15;;;;;;;;;;4877650;29;20237;-80
2024/02/19 12:51:18;;;;;;;7.40;2.33;;;;;;;;;;4876262;29;20300;-81
2024/02/19 12:53:45;;;;;;;7.22;2.20;;;;;;;;;;4877894;29;20225;-81
2024/02/19 12:56:12;;;;;;;6.68;2.38;;;;;;;;;;4878126;29;20229;-81
2024/02/19 12:58:39;;;;;;;6.33;1.90;;;;;;;;;;4878002;29;20706;-81
2024/02/19 13:01:10;;;;;;;5.23;2.00;;;;;;;;;;4876864;29;20313;-81
2024/02/19 13:03:40;;;;;;;5.93;1.63;;;;;;;;;;4877789;29;20285;-82
2024/02/19 13:06:12;;;;;;;7.80;1.77;;;;;;;;;;4878063;29;20240;-82
2024/02/19 13:08:40;;;;;;;12.20;2.50;;;;;;;;;;4877699;29;20586;-81
2024/02/19 13:11:08;;;;;;;6.87;2.20;;;;;;;;;;4877180;29;20265;-82
2024/02/19 13:13:36;;;;;;;6.40;1.73;;;;;;;;;;4877396;29;20627;-81
2024/02/19 13:16:03;;;;;;;7.27;1.97;;;;;;;;;;4877500;29;20202;-82
2024/02/19 13:18:31;;;;;;;5.25;1.77;;;;;;;;;;4878103;29;20649;-82
2024/02/19 13:21:00;;;;;;;6.77;1.67;;;;;;;;;;4877563;29;20237;-82
2024/02/19 13:23:27;;;;;;;9.83;2.00;;;;;;;;;;4877104;29;20256;-82
2024/02/19 13:25:54;;;;;;;7.40;2.00;;;;;;;;;;4877503;29;20306;-81
2024/02/19 13:28:21;;;;;;;7.73;2.00;;;;;;;;;;4877067;29;20272;-82
2024/02/19 13:30:49;;;;;;;7.40;1.83;;;;;;;;;;4877354;29;20301;-82
2024/02/19 13:33:16;;;;;;;5.63;1.83;;;;;;;;;;4877261;29;20285;-82
2024/02/19 13:35:43;;;;;;;6.75;1.92;;;;;;;;;;4877777;29;20213;-82
2024/02/19 13:38:12;;;;;;;7.07;2.20;;;;;;;;;;4877158;29;20706;-82
2024/02/19 13:40:41;;;;;;;7.00;2.17;;;;;;;;;;4876915;29;20738;-82
2024/02/19 13:43:09;;;;;;;7.80;1.83;;;;;;;;;;4876932;29;20301;-81
2024/02/19 13:45:51;;;;;;;11.20;1.77;;;;;;;;;;4877369;29;20237;-80
2024/02/19 13:48:21;;;;;;;8.50;2.07;;;;;;;;;;4877576;29;20202;-81
2024/02/19 13:50:48;;;;;;;8.23;1.87;;;;;;;;;;4876930;29;20243;-81
2024/02/19 13:53:17;;;;;;;7.50;2.03;;;;;;;;;;4876945;29;20739;-80
2024/02/19 13:55:44;;;;;;;9.38;2.30;;;;;;;;;;4876754;29;20593;-80
2024/02/19 13:58:12;;;;;;;9.02;2.20;;;;;;;;;;4877520;29;20205;-80
2024/02/19 14:00:39;;;;;;;4.90;2.00;;;;;;;;;;4879384;29;20360;-81
2024/02/19 14:03:08;;;;;;;8.88;2.28;;;;;;;;;;4880770;29;20205;-81
2024/02/19 14:05:37;;;;;;;12.63;2.87;;;;;;;;;;4880645;29;20209;-80
2024/02/19 14:08:04;;;;;;;11.87;2.83;;;;;;;;;;4880783;29;20740;-81
2024/02/19 14:10:33;;;;;;;10.85;3.25;;;;;;;;;;4880679;29;20201;-81
2024/02/19 14:13:04;;;;;;;10.02;2.42;;;;;;;;;;4879975;29;20289;-81
2024/02/19 14:15:31;;;;;;;8.63;2.58;;;;;;;;;;4880581;29;20213;-80
2024/02/19 14:17:58;;;;;;;7.35;2.60;;;;;;;;;;4880084;29;20301;-80
2024/02/19 14:20:25;;;;;;;6.87;2.17;;;;;;;;;;4880500;29;20329;-81
2024/02/19 14:22:52;;;;;;;7.55;2.10;;;;;;;;;;4880010;29;20201;-81
2024/02/19 14:25:20;;;;;;;6.55;2.50;;;;;;;;;;4880144;29;20726;-81
2024/02/19 14:27:51;;;;;;;8.35;2.60;;;;;;;;;;4880134;29;20296;-81
2024/02/19 14:30:19;;;;;;;10.05;3.17;;;;;;;;;;4880491;29;20206;-79
2024/02/19 14:32:46;;;;;;;8.30;2.78;;;;;;;;;;4880317;29;20303;-80
2024/02/19 14:35:13;;;;;;;11.03;3.20;;;;;;;;;;4880522;29;20206;-80
2024/02/19 14:37:40;;;;;;;11.15;2.63;;;;;;;;;;4879801;29;20209;-79
2024/02/19 14:40:09;;;;;;;11.37;3.10;;;;;;;;;;4880336;29;20229;-80